Heralds Prairie, Illinois
Current Conditions -  °F | °C
As of 12:15 PM on Friday 31 Oct 2014 (Local Time) from KCUL Reporting Station
Broken Clouds Broken Clouds  
Wind Chill: 37°   Ceiling: 5000
Heat Index: 46°   Visibility: 10mi
Dew Point: 31°   Wind: 23mph
Humidity: 57%   Direction: 330°NNW
Pressure: 30.14"   Gusts: 30mph
Location:  37.9739°N, 88.3193°W
Report Text: KCUL 311715Z AUTO 33020G26KT 10SM SCT042 BKN050 08/00 A3014 RMK AO2 T00751005
Loading
Personal Weather Stations






























Interactive Weather Map
Tropical Storm Tracking
New forecast layout! Learn more

10-Day Weather Forecast

Advertisements
Track Severe Weather on mobile